createdAt,value
2022-12-20T00:03:38.377Z,73.38
2022-12-20T00:08:41.484Z,73.60
2022-12-20T00:13:47.665Z,73.63
2022-12-20T00:19:00.581Z,73.35
2022-12-20T00:24:05.293Z,73.16
2022-12-20T00:29:08.385Z,72.98
2022-12-20T00:34:11.356Z,72.64
2022-12-20T00:39:14.476Z,72.73
2022-12-20T00:44:17.460Z,72.31
2022-12-20T00:49:20.594Z,72.16
2022-12-20T00:54:23.602Z,72.41
2022-12-20T00:59:26.612Z,72.59
2022-12-20T01:04:29.604Z,73.13
2022-12-20T01:09:33.401Z,73.49
2022-12-20T01:14:36.402Z,73.69
2022-12-20T01:19:40.430Z,73.57
2022-12-20T01:24:43.239Z,74.22
2022-12-20T01:29:46.212Z,74.92
2022-12-20T01:34:49.181Z,75.37
2022-12-20T01:39:52.232Z,75.50
2022-12-20T01:44:59.593Z,75.44
2022-12-20T01:50:04.760Z,75.66
2022-12-20T01:55:25.287Z,75.88
2022-12-20T02:00:29.699Z,76.19
2022-12-20T02:05:44.474Z,76.35
2022-12-20T02:11:02.443Z,76.26
2022-12-20T02:16:05.791Z,76.40
2022-12-20T02:21:39.648Z,76.65
2022-12-20T02:27:22.983Z,77.35
2022-12-20T02:32:38.978Z,77.40
2022-12-20T02:37:56.947Z,77.56
2022-12-20T02:43:05.123Z,77.52
2022-12-20T02:48:11.483Z,77.76
2022-12-20T02:53:15.341Z,78.07
2022-12-20T02:58:34.145Z,78.03
2022-12-20T03:03:38.315Z,78.11
2022-12-20T03:08:41.374Z,78.36
2022-12-20T03:13:44.322Z,78.37
2022-12-20T03:18:48.251Z,78.62
2022-12-20T03:23:51.099Z,78.60
2022-12-20T03:28:54.194Z,78.47
2022-12-20T03:33:57.887Z,78.60
2022-12-20T03:39:01.101Z,78.48
2022-12-20T03:44:04.320Z,78.84
2022-12-20T03:49:07.295Z,78.99
2022-12-20T03:54:10.303Z,79.40
2022-12-20T03:59:13.265Z,79.38
2022-12-20T04:04:16.591Z,79.71
2022-12-20T04:09:19.648Z,79.81
2022-12-20T04:14:22.694Z,79.37
2022-12-20T04:19:25.679Z,79.30
2022-12-20T04:24:28.638Z,79.54
2022-12-20T04:29:32.501Z,79.69
2022-12-20T04:34:35.524Z,80.06
2022-12-20T04:39:38.545Z,79.73
2022-12-20T04:44:41.572Z,79.59
2022-12-20T04:49:44.559Z,79.33
2022-12-20T04:54:48.036Z,79.29
2022-12-20T04:59:51.108Z,79.28
2022-12-20T05:04:54.062Z,78.89
2022-12-20T05:09:57.058Z,78.72
2022-12-20T05:15:00.062Z,78.55
2022-12-20T05:20:04.012Z,78.52
2022-12-20T05:25:26.180Z,78.38
2022-12-20T05:30:30.038Z,78.23
2022-12-20T05:35:33.121Z,78.01
2022-12-20T05:40:36.628Z,77.91
2022-12-20T05:45:39.759Z,77.93
2022-12-20T05:50:46.441Z,77.75
2022-12-20T05:55:52.082Z,77.58
2022-12-20T06:00:56.437Z,77.38
2022-12-20T06:05:59.850Z,77.34
2022-12-20T06:11:05.249Z,77.08
2022-12-20T06:16:08.529Z,76.95
2022-12-20T06:21:11.713Z,77.01
2022-12-20T06:26:15.232Z,76.83
2022-12-20T06:31:19.444Z,76.73
2022-12-20T06:36:22.613Z,76.44
2022-12-20T06:41:25.777Z,76.25
2022-12-20T06:46:28.955Z,76.17
2022-12-20T06:51:32.510Z,75.91
2022-12-20T06:56:41.043Z,75.81
2022-12-20T07:01:45.284Z,76.02
2022-12-20T07:06:48.369Z,75.60
2022-12-20T07:11:52.268Z,75.56
2022-12-20T07:16:55.479Z,75.09
2022-12-20T07:21:58.491Z,74.98
2022-12-20T07:27:02.130Z,74.95
2022-12-20T07:32:05.563Z,74.87
2022-12-20T07:37:11.361Z,74.66
2022-12-20T07:42:14.953Z,74.46
2022-12-20T07:47:18.763Z,73.76
2022-12-20T07:52:26.717Z,73.28
2022-12-20T07:57:43.153Z,73.37
2022-12-20T08:03:27.570Z,73.51
2022-12-20T08:08:38.574Z,73.20
2022-12-20T08:13:46.177Z,73.07
2022-12-20T08:18:49.826Z,73.22
2022-12-20T08:23:52.986Z,73.12
2022-12-20T08:28:56.693Z,73.14
2022-12-20T08:33:59.676Z,73.03
2022-12-20T08:39:05.171Z,72.82
2022-12-20T08:44:08.889Z,72.52
2022-12-20T08:49:11.987Z,74.99
2022-12-20T08:54:15.013Z,74.35
2022-12-20T08:59:18.660Z,73.00
2022-12-20T09:04:22.310Z,72.25
2022-12-20T09:09:25.367Z,71.85
2022-12-20T09:14:28.430Z,71.69
2022-12-20T09:19:31.448Z,71.59
2022-12-20T09:24:34.439Z,71.17
2022-12-20T09:29:37.393Z,70.36
2022-12-20T09:34:40.470Z,70.25
2022-12-20T09:39:43.466Z,70.11
2022-12-20T09:44:46.672Z,70.40
2022-12-20T09:49:55.329Z,70.01
2022-12-20T09:55:31.902Z,70.25
2022-12-20T10:00:53.972Z,70.62
2022-12-20T10:06:23.739Z,70.89
2022-12-20T10:12:00.517Z,71.00
2022-12-20T10:17:16.903Z,70.90
2022-12-20T10:22:42.359Z,70.50
2022-12-20T10:27:47.738Z,69.92
2022-12-20T10:32:54.975Z,69.68
2022-12-20T10:38:07.500Z,69.46
2022-12-20T10:43:21.543Z,69.60
2022-12-20T10:48:38.503Z,69.84
2022-12-20T10:53:58.810Z,69.81
2022-12-20T10:59:23.418Z,70.06
2022-12-20T11:04:36.517Z,69.69
2022-12-20T11:09:55.122Z,69.72
2022-12-20T11:15:33.599Z,69.61
2022-12-20T11:21:11.068Z,69.46
2022-12-20T11:27:20.023Z,68.90
2022-12-20T11:33:17.622Z,68.66
2022-12-20T11:38:57.690Z,68.80
2022-12-20T11:44:26.257Z,68.98
2022-12-20T11:50:18.320Z,68.99
2022-12-20T11:55:33.939Z,68.71
2022-12-20T12:00:41.546Z,69.09
2022-12-20T12:06:07.383Z,69.33
2022-12-20T12:12:03.882Z,69.49
2022-12-20T12:16:52.063Z,69.46
2022-12-20T12:22:13.743Z,69.46
2022-12-20T12:27:26.697Z,69.42
2022-12-20T12:32:45.224Z,69.65
2022-12-20T12:38:27.023Z,69.56
2022-12-20T12:43:49.327Z,69.33
2022-12-20T12:49:12.617Z,69.34
2022-12-20T12:54:22.256Z,69.75
2022-12-20T12:59:34.256Z,70.09
2022-12-20T13:05:07.434Z,70.20
2022-12-20T13:10:10.358Z,69.75
2022-12-20T13:15:22.683Z,69.65
2022-12-20T13:20:31.633Z,69.59
2022-12-20T13:25:46.634Z,69.67
2022-12-20T13:31:13.545Z,69.86
2022-12-20T13:36:16.837Z,69.84
2022-12-20T13:41:35.966Z,70.30
2022-12-20T13:47:04.639Z,70.62
2022-12-20T13:52:28.896Z,70.43
2022-12-20T13:57:32.857Z,70.05
2022-12-20T14:02:41.467Z,70.18
2022-12-20T14:07:52.347Z,70.22
2022-12-20T14:12:56.856Z,70.33
2022-12-20T14:18:16.129Z,70.30
2022-12-20T14:23:23.837Z,70.60
2022-12-20T14:28:48.354Z,70.89
2022-12-20T14:33:52.301Z,70.69
2022-12-20T14:38:55.106Z,70.98
2022-12-20T14:44:03.349Z,70.65
2022-12-20T14:49:35.020Z,70.55
2022-12-20T14:55:10.266Z,70.94
2022-12-20T15:00:32.053Z,71.22
2022-12-20T15:05:35.976Z,71.70
2022-12-20T15:10:42.973Z,72.11
2022-12-20T15:15:46.105Z,72.14
2022-12-20T15:21:01.019Z,72.33
2022-12-20T15:26:04.164Z,72.41
2022-12-20T15:31:11.148Z,72.43
2022-12-20T15:36:20.182Z,72.47
2022-12-20T15:41:30.644Z,72.67
2022-12-20T15:46:33.921Z,72.69
2022-12-20T15:51:40.558Z,72.51
2022-12-20T15:56:43.492Z,72.31
2022-12-20T16:01:46.581Z,72.53
2022-12-20T16:06:53.828Z,72.64
2022-12-20T16:11:57.360Z,72.85
2022-12-20T16:17:00.290Z,72.93
2022-12-20T16:22:04.053Z,72.94
2022-12-20T16:27:06.998Z,72.89
2022-12-20T16:32:15.700Z,72.74
2022-12-20T16:37:19.204Z,72.49
2022-12-20T16:42:22.537Z,72.41
2022-12-20T16:47:26.104Z,72.48
2022-12-20T16:52:29.042Z,72.57
2022-12-20T16:57:32.569Z,72.59
2022-12-20T17:02:35.641Z,72.62
2022-12-20T17:07:41.571Z,72.09
2022-12-20T17:12:45.311Z,72.15
2022-12-20T17:17:50.087Z,72.77
2022-12-20T17:28:16.506Z,73.09
2022-12-20T17:33:19.411Z,73.26
2022-12-20T17:38:22.809Z,73.16
2022-12-20T17:43:25.722Z,73.19
2022-12-20T17:48:33.241Z,72.86
2022-12-20T17:53:37.732Z,72.64
2022-12-20T17:58:42.854Z,72.58
2022-12-20T18:09:21.612Z,72.65
2022-12-20T18:14:24.565Z,72.91
2022-12-20T18:19:27.590Z,72.87
2022-12-20T18:24:30.513Z,72.82
2022-12-20T18:29:33.430Z,72.77
2022-12-20T18:34:36.373Z,72.63
2022-12-20T18:39:39.299Z,72.30
2022-12-20T18:44:42.307Z,71.84
2022-12-20T18:49:45.239Z,72.25
2022-12-20T18:54:48.141Z,72.45
2022-12-20T18:59:51.411Z,72.40
2022-12-20T19:04:54.355Z,72.43
2022-12-20T19:09:57.240Z,72.30
2022-12-20T19:15:00.275Z,72.35
2022-12-20T19:20:05.342Z,72.44
2022-12-20T19:25:08.804Z,72.46
2022-12-20T19:30:12.026Z,72.42
2022-12-20T19:35:52.960Z,72.04
2022-12-20T19:40:38.330Z,71.82
2022-12-20T19:45:41.281Z,72.03
2022-12-20T19:50:44.255Z,72.24
2022-12-20T19:55:53.686Z,72.34
2022-12-20T20:00:58.232Z,72.34
2022-12-20T20:06:02.048Z,72.33
2022-12-20T20:11:09.448Z,71.93
2022-12-20T20:16:18.207Z,71.79
2022-12-20T20:21:25.077Z,71.50
2022-12-20T20:26:29.691Z,71.39
2022-12-20T20:31:33.234Z,71.31
2022-12-20T20:36:36.328Z,71.21
2022-12-20T20:41:39.279Z,71.25
2022-12-20T20:46:42.364Z,71.55
2022-12-20T20:51:45.922Z,71.57
2022-12-20T20:56:49.147Z,71.37
2022-12-20T21:01:52.130Z,71.42
2022-12-20T21:06:55.226Z,71.44
2022-12-20T21:11:58.696Z,71.39
2022-12-20T21:17:01.890Z,71.57
2022-12-20T21:22:04.879Z,71.81
2022-12-20T21:27:07.962Z,71.48
2022-12-20T21:32:10.934Z,70.99
2022-12-20T21:37:13.874Z,70.64
2022-12-20T21:42:18.135Z,70.71
2022-12-20T21:47:21.041Z,70.98
2022-12-20T21:52:23.970Z,71.24
2022-12-20T21:57:26.902Z,71.28
2022-12-20T22:02:29.904Z,71.30
2022-12-20T22:07:32.947Z,71.17
2022-12-20T22:12:35.869Z,70.99
2022-12-20T22:17:38.796Z,70.62
2022-12-20T22:22:41.901Z,71.05
2022-12-20T22:27:44.903Z,71.04
2022-12-20T22:32:48.571Z,70.88
2022-12-20T22:37:52.351Z,71.08
2022-12-20T22:42:55.438Z,71.21
2022-12-20T22:48:01.311Z,71.00
2022-12-20T22:53:04.323Z,70.96
2022-12-20T22:58:07.491Z,70.93
2022-12-20T23:03:10.504Z,70.68
2022-12-20T23:08:13.629Z,70.57
2022-12-20T23:13:35.297Z,70.70
2022-12-20T23:18:38.399Z,70.91
2022-12-20T23:23:41.294Z,71.05
2022-12-20T23:28:44.767Z,71.52
2022-12-20T23:33:47.680Z,71.68
2022-12-20T23:38:50.594Z,72.09
2022-12-20T23:43:53.513Z,72.36
2022-12-20T23:48:56.497Z,72.61
2022-12-20T23:53:59.352Z,72.64
2022-12-20T23:59:02.609Z,72.30
